Data for 06/24/2013

Time Sea-Level Adjusted Pressure Absolute Pressure Temperature Relative Humidity Dew Point   
(mb) (inHg) (mb) (inHg) (C) (F) (%) (C) (F)
00:05 1011 29.85 840 24.81 13.7 56.6 51 3.8 38.9
00:10 1011 29.85 840 24.81 13.3 55.9 52 3.8 38.9
00:15 1011 29.85 840 24.81 13.1 55.5 52 3.6 38.5
00:20 1011 29.85 840 24.81 13.3 55.9 49 2.9 37.2
00:25 1011 29.85 840 24.81 14.3 57.7 48 3.4 38.1
00:30 1011 29.85 840 24.81 14.6 58.2 48 3.8 38.8
00:35 1011 29.85 840 24.81 14.8 58.7 49 4.2 39.6
00:40 1011 29.85 840 24.81 14.9 58.9 50 4.7 40.4
00:45 1011 29.85 840 24.81 14.8 58.7 51 4.8 40.7
00:50 1011 29.85 840 24.81 14.9 58.9 51 4.9 40.9
00:55 1011 29.85 840 24.81 15 59 51 5 41
01:00 1011 29.85 840 24.81 15.1 59.2 51 5.1 41.1
01:05 1011 29.85 840 24.81 15.2 59.3 51 5.1 41.1
01:10 1011 29.85 840 24.81 15.2 59.3 51 5.3 41.5
01:15 1010 29.83 840 24.81 14.2 57.5 54 5.1 41.1
01:20 1010 29.83 840 24.81 13.6 56.4 55 4.7 40.4
01:25 1010 29.83 840 24.81 14.3 57.7 53 4.9 40.8
01:30 1010 29.83 840 24.81 14.8 58.6 53 5.3 41.5
01:35 1010 29.83 840 24.81 14.7 58.4 53 5.4 41.7
01:40 1010 29.83 840 24.81 14.5 58.2 54 5.4 41.7
01:45 1010 29.83 840 24.81 14.4 58 54 5.3 41.5
01:50 1011 29.85 840 24.81 14.3 57.8 54 5.2 41.3
01:55 1011 29.85 840 24.81 14.2 57.5 54 5.1 41.2
02:00 1010 29.83 840 24.81 14 57.2 55 5.1 41.3
02:05 1010 29.83 840 24.81 13.7 56.7 55 5 40.9
02:10 1010 29.83 840 24.81 13.2 55.8 57 5.1 41.1
02:15 1010 29.83 840 24.81 13.2 55.8 57 5.1 41.1
02:20 1010 29.83 840 24.81 13.1 55.7 56 4.7 40.5
02:25 1010 29.83 839 24.78 13.1 55.5 56 4.4 40
02:30 1010 29.83 839 24.78 12.8 55.1 55 4.1 39.4
02:35 1010 29.83 839 24.78 12.6 54.7 56 4.2 39.5
02:40 1010 29.83 839 24.78 12.5 54.5 57 4.2 39.5
02:45 1010 29.83 839 24.78 12.5 54.5 57 4.2 39.6
02:50 1010 29.83 839 24.78 12.4 54.2 58 4.3 39.7
02:55 1010 29.83 839 24.78 12.3 54.1 58 4.4 39.9
03:00 1010 29.83 839 24.78 12.2 54 59 4.4 40
03:05 1010 29.83 839 24.78 12 53.6 58 4.1 39.4
03:10 1010 29.83 839 24.78 11.8 53.3 59 4.1 39.5
03:15 1010 29.83 839 24.78 11.7 53.1 60 4.2 39.6
03:20 1010 29.83 839 24.78 11.6 52.9 60 4.1 39.3
03:25 1010 29.83 839 24.78 11.7 53.1 56 3.4 38
03:30 1010 29.83 839 24.78 11.9 53.4 57 3.6 38.5
03:35 1010 29.83 839 24.78 11.9 53.3 57 3.6 38.4
03:40 1010 29.83 839 24.78 12 53.6 57 3.8 38.9
03:45 1010 29.83 839 24.78 11.9 53.3 58 4 39.1
03:50 1010 29.83 839 24.78 11.5 52.7 60 4.1 39.3
03:55 1010 29.83 839 24.78 11.4 52.4 60 3.8 38.9
04:00 1010 29.83 839 24.78 11.3 52.4 60 4 39.2
04:05 1010 29.83 839 24.78 11 51.8 62 4 39.2
04:10 1010 29.83 839 24.78 10.9 51.5 62 4 39.2
04:15 1010 29.83 839 24.78 10.9 51.5 63 4.2 39.5
04:20 1010 29.83 839 24.78 11.1 52 61 4 39.1
04:25 1010 29.83 839 24.78 11.8 53.2 59 4 39.2
04:30 1010 29.83 839 24.78 12 53.5 58 4 39.3
04:35 1010 29.83 839 24.78 12.2 54 57 3.9 39.1
04:40 1010 29.83 839 24.78 12.6 54.6 56 4.2 39.6
04:45 1010 29.83 839 24.78 12.9 55.2 55 4.2 39.5
04:50 1010 29.83 839 24.78 13.2 55.8 54 4.3 39.8
04:55 1010 29.83 839 24.78 13.4 56 54 4.3 39.7
05:00 1010 29.83 839 24.78 13.5 56.2 54 4.4 39.9
05:05 1010 29.83 839 24.78 13.5 56.4 54 4.5 40.2
05:10 1010 29.83 839 24.78 13.6 56.6 55 4.9 40.7
05:15 1010 29.83 839 24.78 13.9 57 54 4.7 40.5
05:20 1010 29.83 839 24.78 13.9 56.9 54 4.8 40.7
05:25 1010 29.83 839 24.78 13.6 56.6 56 5.2 41.3
05:30 1010 29.83 839 24.78 13.4 56.1 55 4.7 40.4
05:35 1010 29.83 839 24.78 13.5 56.3 55 4.8 40.7
05:40 1010 29.83 839 24.78 13.4 56.1 56 4.7 40.5
05:45 1010 29.83 839 24.78 13.3 55.9 56 4.7 40.5
05:50 1010 29.83 839 24.78 13.2 55.8 55 4.5 40.2
05:55 1010 29.83 839 24.78 13.1 55.6 54 4.1 39.3
06:00 1010 29.83 839 24.78 12.9 55.2 53 3.5 38.4
06:05 1010 29.83 839 24.78 12.8 55.1 52 3.3 37.9
06:10 1010 29.83 839 24.78 12.9 55.2 51 3.1 37.6
06:15 1010 29.83 839 24.78 13 55.3 51 3.2 37.8
06:20 1010 29.83 839 24.78 13 55.4 51 3.2 37.7
06:25 1010 29.83 839 24.78 12.9 55.3 53 3.6 38.5
06:30 1010 29.83 839 24.78 12.6 54.6 56 4.1 39.3
06:35 1010 29.83 839 24.78 12.3 54.1 56 3.9 39
06:40 1010 29.83 839 24.78 12.4 54.3 56 3.8 38.8
06:45 1010 29.83 839 24.78 12.6 54.6 53 3.5 38.2
06:50 1010 29.83 839 24.78 12.7 54.8 53 3.3 37.9
06:55 1010 29.83 839 24.78 12.7 54.9 53 3.6 38.5
07:00 1009 29.8 839 24.78 13 55.4 52 3.3 38
07:05 1009 29.8 839 24.78 13.3 55.9 52 3.7 38.6
07:10 1009 29.8 839 24.78 13.7 56.6 52 4.2 39.5
07:15 1009 29.8 838 24.75 14.1 57.4 52 4.4 39.9
07:20 1009 29.8 838 24.75 13.9 57.1 52 4.3 39.8
07:25 1009 29.8 838 24.75 14 57.3 50 3.9 39
07:30 1009 29.8 838 24.75 14.2 57.6 51 4.2 39.6
07:35 1009 29.8 838 24.75 14.5 58.1 51 4.6 40.3
07:40 1009 29.8 838 24.75 14.7 58.5 50 4.3 39.8
07:45 1009 29.8 838 24.75 15.1 59.2 48 4.3 39.7
07:50 1009 29.8 838 24.75 15.5 59.9 48 4.6 40.3
07:55 1009 29.8 838 24.75 15.6 60.1 49 5.2 41.3
08:00 1009 29.8 838 24.75 15.7 60.2 55 6.8 44.2
08:05 1009 29.8 838 24.75 15.4 59.7 57 7 44.5
08:10 1009 29.8 838 24.75 15.4 59.7 56 6.8 44.2
08:15 1009 29.8 838 24.75 15 59 57 6.7 44.1
08:20 1009 29.8 838 24.75 15.2 59.3 57 6.9 44.4
08:25 1009 29.8 838 24.75 15.7 60.3 55 6.7 44.1
08:30 1009 29.8 838 24.75 16 60.8 53 6.5 43.8
08:35 1009 29.8 838 24.75 16.6 62 50 6.3 43.4
08:40 1009 29.8 838 24.75 17.1 62.8 46 5.5 41.9
08:45 1009 29.8 838 24.75 17.5 63.5 43 5.1 41.2
08:50 1009 29.8 838 24.75 17.9 64.2 39 3.9 39
08:55 1009 29.8 838 24.75 17.8 64 39 3.6 38.5
09:00 1009 29.8 838 24.75 17.3 63.2 38 3 37.4
09:05 1009 29.8 838 24.75 17.2 62.9 39 3.2 37.7
09:10 1009 29.8 838 24.75 17.3 63.2 38 2.9 37.2
09:15 1009 29.8 838 24.75 17.6 63.8 37 2.8 37.1
09:20 1009 29.8 838 24.75 18.2 64.7 38 3.6 38.5
09:25 1009 29.8 838 24.75 18.7 65.6 47 7.1 44.8
09:30 1009 29.8 838 24.75 18.4 65.2 47 7 44.6
09:35 1009 29.8 838 24.75 18.1 64.6 47 6.7 44
09:40 1009 29.8 838 24.75 18.6 65.5 46 6.8 44.3
09:45 1009 29.8 838 24.75 18.4 65 47 6.9 44.5
09:50 1009 29.8 838 24.75 18.1 64.6 47 6.8 44.2
09:55 1009 29.8 838 24.75 18.2 64.7 47 6.8 44.3
10:00 1009 29.8 838 24.75 18.6 65.5 45 6.5 43.7
10:05 1009 29.8 838 24.75 18.5 65.3 46 6.8 44.3
10:10 1009 29.8 838 24.75 18.3 65 47 7.1 44.7
10:15 1009 29.8 838 24.75 19.2 66.5 44 6.7 44
10:20 1009 29.8 838 24.75 19.2 66.6 46 7.4 45.4
10:25 1009 29.8 838 24.75 19 66.2 46 7.3 45.2
10:30 1009 29.8 838 24.75 19.7 67.4 45 7.6 45.7
10:35 1009 29.8 838 24.75 20 68 44 7.5 45.6
10:40 1009 29.8 838 24.75 19.9 67.9 46 8.2 46.7
10:45 1009 29.8 838 24.75 19.8 67.7 46 7.9 46.3
10:50 1009 29.8 838 24.75 19.9 67.8 46 8 46.3
10:55 1009 29.8 838 24.75 19.8 67.6 45 7.6 45.6
11:00 1009 29.8 838 24.75 20.5 68.8 45 8.2 46.7
11:05 1009 29.8 838 24.75 20.4 68.7 43 7.6 45.7
11:10 1009 29.8 838 24.75 20 68.1 44 7.7 45.9
11:15 1009 29.8 838 24.75 20.1 68.1 46 8.2 46.7
11:20 1009 29.8 838 24.75 20.1 68.1 46 8.1 46.6
11:25 1009 29.8 838 24.75 20.6 69.2 44 8.2 46.8
11:30 1009 29.8 838 24.75 20.2 68.3 46 8.2 46.8
11:35 1009 29.8 838 24.75 20.5 68.9 44 7.9 46.3
11:40 1009 29.8 838 24.75 20.3 68.6 46 8.5 47.3
11:45 1009 29.8 838 24.75 19.8 67.7 45 7.7 45.9
11:50 1009 29.8 838 24.75 19.6 67.3 47 8.3 46.9
11:55 1009 29.8 838 24.75 19.8 67.6 47 8.2 46.8
12:00 1009 29.8 838 24.75 19.6 67.4 46 7.9 46.2
12:05 1009 29.8 838 24.75 19.8 67.7 46 8.1 46.6
12:10 1009 29.8 838 24.75 19.9 67.9 46 8 46.4
12:15 1009 29.8 838 24.75 19.9 67.9 44 7.6 45.7
12:20 1009 29.8 838 24.75 20.3 68.6 45 8.1 46.5
12:25 1009 29.8 838 24.75 20.6 69.1 45 8.3 47
12:30 1009 29.8 838 24.75 21 69.7 45 8.6 47.5
12:35 1009 29.8 838 24.75 21 69.7 47 9.3 48.7
12:40 1009 29.8 838 24.75 21.6 71 40 7.7 45.9
12:45 1009 29.8 838 24.75 21.9 71.4 38 7.2 45
12:50 1009 29.8 838 24.75 22.9 73.2 28 3.5 38.4
12:55 1009 29.8 838 24.75 23.5 74.3 27 3.5 38.4
13:00 1008 29.77 838 24.75 23.8 74.8 27 3.6 38.6
13:05 1008 29.77 837 24.72 24.6 76.2 25 3.4 38.1
13:10 1008 29.77 837 24.72 24.7 76.5 22 1.9 35.4
13:15 1008 29.77 837 24.72 24.9 76.9 21 1.6 34.8
13:20 1008 29.77 837 24.72 25.2 77.4 20 0.7 33.3
13:25 1008 29.77 837 24.72 25 76.9 21 1.1 34
13:30 1008 29.77 837 24.72 25.3 77.5 21 1.5 34.8
13:35 1008 29.77 837 24.72 25.5 77.8 21 1.7 35
13:40 1008 29.77 837 24.72 25.4 77.8 19 0.7 33.3
13:45 1008 29.77 837 24.72 25.5 77.8 21 1.7 35
13:50 1008 29.77 837 24.72 25.8 78.4 20 1.2 34.2
13:55 1008 29.77 837 24.72 25.6 78 20 1.2 34.2
14:00 1008 29.77 837 24.72 25.6 78 19 0.8 33.5
14:05 1008 29.77 837 24.72 25.8 78.4 18 -0.1 31.8
14:10 1008 29.77 837 24.72 25.7 78.3 20 1 33.9
14:15 1008 29.77 837 24.72 25.6 78 19 0.8 33.4
14:20 1008 29.77 837 24.72 25.6 78 19 0.9 33.6
14:25 1008 29.77 837 24.72 25.7 78.3 20 1.4 34.5
14:30 1008 29.77 837 24.72 25.9 78.5 17 -0.5 31
14:35 1008 29.77 837 24.72 25.8 78.5 19 0.4 32.7
14:40 1008 29.77 837 24.72 26.1 78.9 17 -0.4 31.3
14:45 1008 29.77 837 24.72 26.4 79.4 18 0.4 32.7
14:50 1008 29.77 837 24.72 26.1 78.9 18 0.4 32.8
14:55 1008 29.77 837 24.72 26 78.8 20 1.4 34.5
15:00 1008 29.77 837 24.72 25.8 78.4 18 0.3 32.6
15:05 1008 29.77 837 24.72 25.6 78 21 1.9 35.5
15:10 1008 29.77 837 24.72 25.5 77.9 20 1.5 34.7
15:15 1008 29.77 837 24.72 25.3 77.5 23 2.8 37
15:20 1008 29.77 837 24.72 24.9 76.9 21 1.2 34.1
15:25 1008 29.77 837 24.72 25 77 22 2.2 35.9
15:30 1008 29.77 837 24.72 24.8 76.7 24 3.3 38
15:35 1008 29.77 837 24.72 24.5 76.2 21 1.2 34.1
15:40 1008 29.77 837 24.72 24.3 75.8 21 1 33.7
15:45 1008 29.77 837 24.72 24.4 75.8 23 2.1 35.7
15:50 1008 29.77 837 24.72 24.6 76.2 22 2 35.6
15:55 1008 29.77 837 24.72 24.4 75.8 23 2 35.7
16:00 1008 29.77 837 24.72 24.4 75.9 23 2.1 35.9
16:05 1008 29.77 837 24.72 24.5 76.2 21 1.2 34.1
16:10 1008 29.77 837 24.72 24.9 76.8 23 2.8 37.1
16:15 1008 29.77 837 24.72 24.9 76.8 21 1.6 34.8
16:20 1008 29.77 837 24.72 24.8 76.6 24 2.9 37.2
16:25 1008 29.77 837 24.72 24.7 76.4 25 3.4 38.1
16:30 1008 29.77 837 24.72 24.5 76.1 26 3.9 39.1
16:35 1008 29.77 837 24.72 24.5 76.1 24 2.9 37.2
16:40 1008 29.77 837 24.72 24.4 76 25 3.2 37.8
16:45 1008 29.77 837 24.72 24.3 75.7 25 3.4 38.1
16:50 1008 29.77 837 24.72 24 75.2 27 3.9 39
16:55 1008 29.77 837 24.72 23.7 74.7 28 4.6 40.2
17:00 1008 29.77 837 24.72 23.8 74.8 29 4.6 40.4
17:05 1008 29.77 837 24.72 23.8 74.9 29 4.9 40.8
17:10 1008 29.77 837 24.72 24 75.1 30 5.7 42.2
17:15 1008 29.77 837 24.72 24 75.2 32 6.4 43.5
17:20 1008 29.77 837 24.72 23.9 75.1 31 5.9 42.7
17:25 1008 29.77 837 24.72 23.8 74.9 28 4.2 39.6
17:30 1008 29.77 837 24.72 23.9 75 30 5.4 41.7
17:35 1008 29.77 837 24.72 23.7 74.6 28 4.3 39.8
17:40 1008 29.77 837 24.72 23.6 74.4 29 4.5 40.2
17:45 1008 29.77 837 24.72 23.5 74.2 28 3.9 39.1
17:50 1008 29.77 838 24.75 23.5 74.2 29 4.6 40.4
17:55 1008 29.77 838 24.75 23.5 74.3 29 4.6 40.3
18:00 1008 29.77 838 24.75 23.4 74.1 30 4.9 40.8
18:05 1008 29.77 838 24.75 23.2 73.7 30 4.9 40.9
18:10 1008 29.77 838 24.75 23.1 73.6 31 5.4 41.7
18:15 1008 29.77 838 24.75 22.6 72.8 33 5.5 42
18:20 1008 29.77 838 24.75 22.3 72.2 34 5.9 42.7
18:25 1008 29.77 838 24.75 22.1 71.7 34 5.7 42.3
18:30 1008 29.77 838 24.75 22 71.6 33 5.4 41.7
18:35 1008 29.77 838 24.75 22 71.5 33 5.1 41.2
18:40 1008 29.77 838 24.75 21.9 71.4 32 4.6 40.4
18:45 1009 29.8 838 24.75 21.9 71.3 31 4.2 39.5
18:50 1009 29.8 838 24.75 21.9 71.4 31 4 39.3
18:55 1009 29.8 838 24.75 22 71.5 30 3.7 38.6
19:00 1009 29.8 838 24.75 21.8 71.2 32 4.3 39.8
19:05 1009 29.8 838 24.75 21.5 70.8 32 4.4 40
19:10 1009 29.8 839 24.78 21.4 70.6 33 4.7 40.5
19:15 1009 29.8 839 24.78 21.2 70.2 34 5 41
19:20 1009 29.8 839 24.78 20.7 69.3 35 5.1 41.1
19:25 1009 29.8 839 24.78 20.5 69 33 4 39.2
19:30 1010 29.83 839 24.78 20.6 69.1 36 5.1 41.2
19:35 1010 29.83 839 24.78 20.6 69.2 36 5.1 41.1
19:40 1010 29.83 839 24.78 20.6 69.1 36 5.2 41.3
19:45 1011 29.85 840 24.81 20.4 68.8 40 6.6 43.9
19:50 1011 29.85 840 24.81 18.5 65.3 56 9.7 49.4
19:55 1011 29.85 840 24.81 17.1 62.7 62 9.9 49.8
20:00 1011 29.85 840 24.81 15.5 59.8 72 10.4 50.8
20:05 1011 29.85 840 24.81 14.8 58.6 71 9.5 49.2
20:10 1011 29.85 840 24.81 14.7 58.5 68 8.9 48.1
20:15 1011 29.85 840 24.81 14.8 58.6 70 9.4 48.9
20:20 1011 29.85 840 24.81 14.4 58 73 9.6 49.3
20:25 1011 29.85 840 24.81 14.1 57.3 75 9.8 49.6
20:30 1011 29.85 840 24.81 14 57.2 76 9.8 49.7
20:35 1011 29.85 840 24.81 13.8 56.9 75 9.6 49.2
20:40 1011 29.85 840 24.81 13.8 56.8 74 9.3 48.7
20:45 1011 29.85 840 24.81 13.9 57 73 9.1 48.4
20:50 1011 29.85 840 24.81 13.9 57 74 9.3 48.7
20:55 1011 29.85 840 24.81 13.9 57.1 73 9.2 48.5
21:00 1011 29.85 840 24.81 13.9 57 74 9.3 48.8
21:05 1011 29.85 840 24.81 13.7 56.7 77 9.7 49.5
21:10 1011 29.85 840 24.81 13.5 56.4 76 9.4 49
21:15 1011 29.85 840 24.81 13.6 56.5 75 9.3 48.7
21:20 1011 29.85 840 24.81 13.7 56.6 75 9.4 48.8
21:25 1011 29.85 840 24.81 13.7 56.7 75 9.3 48.8
21:30 1011 29.85 840 24.81 13.7 56.7 76 9.6 49.4
21:35 1011 29.85 840 24.81 13.7 56.6 74 9.1 48.4
21:40 1011 29.85 840 24.81 13.8 56.9 75 9.5 49.1
21:45 1011 29.85 840 24.81 13.8 56.8 75 9.5 49.1
21:50 1011 29.85 840 24.81 13.5 56.2 77 9.5 49.1
21:55 1011 29.85 840 24.81 13.4 56.1 77 9.4 49
22:00 1011 29.85 840 24.81 13.4 56.1 75 9.2 48.5
22:05 1011 29.85 840 24.81 13.6 56.5 75 9.4 48.9
22:10 1011 29.85 840 24.81 13.6 56.5 74 9.1 48.4
22:15 1011 29.85 840 24.81 13.7 56.7 74 9.3 48.7
22:20 1011 29.85 840 24.81 13.7 56.7 73 9.1 48.4
22:25 1011 29.85 840 24.81 13.7 56.7 74 9.3 48.7
22:30 1011 29.85 840 24.81 13.7 56.7 74 9.2 48.6
22:35 1011 29.85 840 24.81 13.8 56.8 73 9.1 48.5
22:40 1011 29.85 840 24.81 13.7 56.6 75 9.3 48.7
22:45 1011 29.85 840 24.81 13.7 56.6 74 9.1 48.4
22:50 1011 29.85 840 24.81 13.8 56.8 73 9.1 48.3
22:55 1011 29.85 840 24.81 13.8 56.8 73 9 48.3
23:00 1011 29.85 840 24.81 13.9 57 74 9.3 48.7
23:05 1011 29.85 840 24.81 13.8 56.8 73 9.1 48.4
23:10 1011 29.85 840 24.81 13.7 56.7 74 9.1 48.4
23:15 1011 29.85 840 24.81 13.7 56.6 73 9 48.3
23:20 1011 29.85 840 24.81 13.7 56.6 73 8.9 48.1
23:25 1011 29.85 840 24.81 13.7 56.6 73 9 48.2
23:30 1011 29.85 840 24.81 13.8 56.8 66 7.6 45.6
23:35 1011 29.85 840 24.81 14.2 57.5 68 8.5 47.3
23:40 1011 29.85 841 24.83 14.3 57.8 62 7.3 45.1
23:45 1011 29.85 841 24.83 15 59 59 7.1 44.7
23:50 1011 29.85 841 24.83 15.4 59.7 55 6.5 43.7
23:55 1011 29.85 841 24.83 15.6 60 55 6.7 44
24:00 1011 29.85 841 24.83 15.7 60.3 50 5.4 41.7